createdAt,value
2022-12-24T00:02:04.663Z,7.15
2022-12-24T00:04:31.909Z,7.80
2022-12-24T00:06:59.477Z,7.38
2022-12-24T00:09:27.155Z,11.85
2022-12-24T00:11:55.118Z,10.20
2022-12-24T00:14:22.969Z,9.15
2022-12-24T00:16:50.666Z,10.40
2022-12-24T00:19:18.408Z,9.38
2022-12-24T00:21:45.509Z,7.82
2022-12-24T00:24:12.487Z,7.75
2022-12-24T00:26:39.808Z,8.80
2022-12-24T00:29:07.566Z,7.88
2022-12-24T00:31:42.743Z,11.95
2022-12-24T00:34:16.757Z,8.90
2022-12-24T00:36:44.274Z,16.63
2022-12-24T00:39:11.881Z,11.70
2022-12-24T00:41:38.834Z,9.35
2022-12-24T00:44:10.375Z,12.40
2022-12-24T00:46:43.603Z,8.23
2022-12-24T00:49:15.446Z,16.60
2022-12-24T00:51:42.464Z,13.52
2022-12-24T00:54:09.650Z,10.73
2022-12-24T00:56:42.686Z,12.68
2022-12-24T00:59:17.292Z,9.43
2022-12-24T01:01:44.923Z,9.98
2022-12-24T01:04:30.638Z,9.68
2022-12-24T01:07:21.105Z,9.35
2022-12-24T01:10:06.648Z,9.65
2022-12-24T01:12:37.601Z,11.38
2022-12-24T01:15:07.854Z,11.77
2022-12-24T01:17:41.471Z,8.43
2022-12-24T01:21:00.404Z,8.38
2022-12-24T01:23:57.190Z,8.90
2022-12-24T01:29:36.846Z,9.07
2022-12-24T01:32:16.381Z,8.38
2022-12-24T01:34:48.482Z,6.05
2022-12-24T01:37:16.138Z,7.20
2022-12-24T01:39:43.269Z,9.27
2022-12-24T01:42:37.248Z,7.35
2022-12-24T01:45:42.325Z,9.23
2022-12-24T01:48:26.434Z,11.48
2022-12-24T01:51:54.651Z,9.88
2022-12-24T01:54:47.325Z,10.68
2022-12-24T01:58:11.506Z,8.10
2022-12-24T02:00:43.105Z,8.60
2022-12-24T02:03:23.009Z,9.05
2022-12-24T02:06:31.013Z,8.93
2022-12-24T02:10:13.942Z,10.27
2022-12-24T02:12:57.457Z,7.30
2022-12-24T02:15:27.761Z,12.05
2022-12-24T02:17:55.506Z,8.55
2022-12-24T02:21:00.270Z,8.52
2022-12-24T02:24:10.420Z,5.28
2022-12-24T02:27:16.792Z,9.55
2022-12-24T02:30:16.305Z,4.53
2022-12-24T02:33:40.455Z,6.32
2022-12-24T02:39:52.034Z,9.65
2022-12-24T02:42:47.230Z,8.73
2022-12-24T02:48:46.555Z,6.40
2022-12-24T02:51:29.459Z,6.78
2022-12-24T02:54:15.753Z,5.95
2022-12-24T02:57:19.482Z,2.60
2022-12-24T03:03:11.398Z,2.50
2022-12-24T03:06:34.013Z,8.38
2022-12-24T03:09:22.821Z,8.63
2022-12-24T03:12:27.225Z,9.70
2022-12-24T03:15:57.365Z,3.92
2022-12-24T03:19:10.597Z,8.75
2022-12-24T03:21:51.494Z,6.15
2022-12-24T03:24:19.005Z,9.82
2022-12-24T03:26:47.084Z,4.22
2022-12-24T03:29:14.164Z,7.15
2022-12-24T03:31:46.910Z,6.05
2022-12-24T03:34:14.768Z,9.32
2022-12-24T03:36:42.332Z,7.95
2022-12-24T03:39:10.135Z,8.50
2022-12-24T03:41:38.067Z,11.25
2022-12-24T03:44:05.520Z,15.10
2022-12-24T03:46:35.174Z,4.70
2022-12-24T03:49:06.377Z,7.13
2022-12-24T03:51:33.408Z,4.95
2022-12-24T03:54:01.229Z,8.48
2022-12-24T03:56:28.660Z,7.13
2022-12-24T03:58:55.708Z,6.05
2022-12-24T04:01:22.842Z,8.57
2022-12-24T04:03:49.947Z,7.43
2022-12-24T04:06:18.139Z,6.45
2022-12-24T04:08:46.137Z,8.10
2022-12-24T04:11:15.619Z,11.50
2022-12-24T04:13:43.716Z,8.45
2022-12-24T04:16:15.239Z,8.13
2022-12-24T04:18:43.610Z,9.75
2022-12-24T04:21:11.686Z,8.00
2022-12-24T04:23:40.341Z,7.43
2022-12-24T04:26:09.562Z,7.32
2022-12-24T04:28:37.801Z,11.27
2022-12-24T04:31:18.207Z,12.38
2022-12-24T04:33:45.977Z,8.93
2022-12-24T04:36:17.264Z,6.32
2022-12-24T04:38:46.193Z,6.63
2022-12-24T04:41:24.362Z,7.90
2022-12-24T04:43:53.693Z,9.65
2022-12-24T04:46:23.418Z,12.60
2022-12-24T04:48:55.157Z,8.13
2022-12-24T04:51:23.271Z,8.35
2022-12-24T04:53:51.343Z,6.68
2022-12-24T04:56:24.658Z,8.48
2022-12-24T04:58:52.008Z,6.50
2022-12-24T05:01:25.999Z,9.63
2022-12-24T05:03:54.041Z,7.75
2022-12-24T05:06:29.401Z,8.45
2022-12-24T05:08:57.774Z,10.38
2022-12-24T05:11:25.302Z,7.03
2022-12-24T05:13:52.540Z,12.07
2022-12-24T05:16:22.735Z,6.13
2022-12-24T05:18:50.528Z,5.45
2022-12-24T05:21:20.631Z,4.30
2022-12-24T05:24:07.201Z,7.18
2022-12-24T05:26:45.588Z,4.38
2022-12-24T05:29:13.368Z,3.90
2022-12-24T05:31:41.924Z,6.88
2022-12-24T05:34:09.764Z,6.82
2022-12-24T05:36:37.194Z,9.48
2022-12-24T05:39:09.780Z,9.35
2022-12-24T05:44:11.094Z,8.98
2022-12-24T05:46:38.407Z,8.27
2022-12-24T05:49:05.560Z,6.90
2022-12-24T05:51:32.566Z,6.95
2022-12-24T05:53:59.563Z,5.68
2022-12-24T05:56:26.640Z,6.63
2022-12-24T05:58:54.686Z,5.78
2022-12-24T06:01:23.063Z,9.13
2022-12-24T06:03:51.392Z,6.53
2022-12-24T06:06:27.225Z,7.07
2022-12-24T06:08:57.206Z,10.15
2022-12-24T06:11:26.974Z,6.45
2022-12-24T06:14:03.941Z,4.90
2022-12-24T06:16:31.678Z,6.50
2022-12-24T06:18:59.345Z,6.53
2022-12-24T06:21:29.528Z,7.68
2022-12-24T06:23:56.707Z,10.05
2022-12-24T06:26:23.971Z,8.32
2022-12-24T06:29:17.696Z,6.65
2022-12-24T06:31:45.590Z,8.85
2022-12-24T06:36:43.065Z,6.80
2022-12-24T06:39:10.322Z,6.82
2022-12-24T06:41:38.097Z,7.50
2022-12-24T06:44:23.779Z,7.75
2022-12-24T06:46:55.568Z,8.27
2022-12-24T06:49:35.159Z,9.90
2022-12-24T06:52:07.276Z,9.15
2022-12-24T06:54:34.503Z,5.68
2022-12-24T06:57:02.977Z,8.15
2022-12-24T06:59:30.222Z,8.98
2022-12-24T07:01:57.492Z,13.52
2022-12-24T07:04:24.990Z,10.27
2022-12-24T07:06:52.487Z,8.25
2022-12-24T07:09:19.560Z,9.98
2022-12-24T07:11:47.913Z,13.38
2022-12-24T07:14:15.116Z,11.02
2022-12-24T07:16:42.182Z,17.30
2022-12-24T07:19:09.749Z,11.68
2022-12-24T07:21:42.987Z,9.43
2022-12-24T07:24:13.439Z,9.93
2022-12-24T07:26:40.442Z,10.23
2022-12-24T07:29:07.498Z,13.13
2022-12-24T07:31:37.273Z,8.85
2022-12-24T07:34:04.390Z,10.60
2022-12-24T07:36:31.438Z,8.02
2022-12-24T07:39:27.496Z,7.03
2022-12-24T07:41:55.236Z,12.07
2022-12-24T07:44:22.364Z,11.05
2022-12-24T07:46:49.374Z,16.27
2022-12-24T07:49:19.641Z,9.05
2022-12-24T07:51:47.070Z,11.45
2022-12-24T07:54:14.451Z,11.98
2022-12-24T07:56:47.317Z,8.43
2022-12-24T07:59:14.868Z,10.00
2022-12-24T08:01:42.574Z,13.57
2022-12-24T08:04:10.007Z,14.73
2022-12-24T08:06:37.998Z,11.30
2022-12-24T08:09:05.645Z,11.00
2022-12-24T08:11:33.434Z,8.50
2022-12-24T08:14:03.477Z,10.20
2022-12-24T08:16:31.409Z,10.25
2022-12-24T08:18:58.648Z,9.57
2022-12-24T08:21:26.246Z,14.43
2022-12-24T08:23:53.266Z,9.65
2022-12-24T08:26:20.797Z,10.70
2022-12-24T08:28:47.964Z,13.90
2022-12-24T08:31:22.835Z,11.02
2022-12-24T08:33:50.001Z,8.63
2022-12-24T08:36:17.565Z,9.73
2022-12-24T08:38:44.698Z,11.23
2022-12-24T08:41:13.699Z,10.95
2022-12-24T08:43:40.744Z,10.80
2022-12-24T08:46:08.426Z,8.85
2022-12-24T08:48:36.871Z,11.15
2022-12-24T08:51:08.915Z,11.82
2022-12-24T08:53:36.400Z,17.55
2022-12-24T08:56:04.974Z,9.00
2022-12-24T08:58:32.413Z,10.05
2022-12-24T09:01:00.155Z,10.48
2022-12-24T09:03:28.299Z,11.95
2022-12-24T09:06:00.370Z,10.27
2022-12-24T09:08:28.998Z,11.25
2022-12-24T09:10:56.286Z,11.38
2022-12-24T09:13:23.654Z,7.75
2022-12-24T09:15:57.089Z,13.10
2022-12-24T09:18:24.772Z,9.20
2022-12-24T09:20:57.122Z,11.43
2022-12-24T09:23:24.528Z,14.23
2022-12-24T09:25:53.116Z,12.20
2022-12-24T09:28:20.688Z,9.20
2022-12-24T09:30:57.091Z,9.98
2022-12-24T09:35:52.473Z,9.68
2022-12-24T09:38:20.798Z,9.10
2022-12-24T09:40:48.526Z,10.10
2022-12-24T09:43:24.146Z,7.68
2022-12-24T09:45:57.578Z,7.60
2022-12-24T09:48:30.374Z,8.82
2022-12-24T09:51:04.756Z,7.70
2022-12-24T09:53:52.157Z,8.27
2022-12-24T09:56:23.882Z,10.30
2022-12-24T09:58:54.047Z,8.15
2022-12-24T10:01:21.282Z,9.95
2022-12-24T10:03:48.626Z,9.88
2022-12-24T10:06:29.017Z,9.38
2022-12-24T10:09:17.763Z,9.15
2022-12-24T10:12:32.252Z,9.80
2022-12-24T10:15:20.951Z,9.57
2022-12-24T10:18:07.900Z,8.38
2022-12-24T10:21:00.764Z,10.70
2022-12-24T10:24:23.914Z,9.20
2022-12-24T10:27:00.935Z,10.80
2022-12-24T10:29:34.542Z,9.25
2022-12-24T10:32:17.450Z,9.65
2022-12-24T10:35:19.255Z,9.88
2022-12-24T10:38:34.660Z,11.63
2022-12-24T10:41:29.022Z,10.18
2022-12-24T10:44:26.099Z,8.82
2022-12-24T10:46:53.498Z,9.60
2022-12-24T10:49:39.022Z,7.55
2022-12-24T10:52:45.103Z,10.77
2022-12-24T10:55:30.576Z,9.93
2022-12-24T10:58:04.128Z,11.00
2022-12-24T11:00:36.367Z,9.82
2022-12-24T11:03:12.922Z,12.15
2022-12-24T11:05:45.867Z,7.45
2022-12-24T11:08:12.979Z,11.52
2022-12-24T11:11:57.149Z,11.15
2022-12-24T11:13:51.651Z,10.45
2022-12-24T11:16:36.531Z,9.95
2022-12-24T11:19:24.154Z,9.82
2022-12-24T11:21:59.930Z,11.55
2022-12-24T11:24:30.993Z,8.90
2022-12-24T11:27:40.927Z,8.50
2022-12-24T11:30:17.480Z,13.18
2022-12-24T11:32:50.765Z,7.63
2022-12-24T11:35:23.900Z,11.18
2022-12-24T11:38:03.343Z,7.28
2022-12-24T11:40:39.245Z,8.02
2022-12-24T11:43:19.074Z,9.43
2022-12-24T11:45:56.371Z,9.13
2022-12-24T11:48:32.303Z,7.63
2022-12-24T11:51:07.807Z,6.80
2022-12-24T11:53:53.061Z,8.65
2022-12-24T12:01:17.582Z,9.85
2022-12-24T12:03:54.025Z,7.47
2022-12-24T12:07:15.672Z,11.63
2022-12-24T12:14:03.681Z,8.60
2022-12-24T12:17:10.231Z,6.15
2022-12-24T12:48:54.501Z,6.05
2022-12-24T12:51:36.002Z,6.15
2022-12-24T12:54:15.694Z,6.95
2022-12-24T12:56:46.941Z,6.22
2022-12-24T12:59:43.140Z,7.32
2022-12-24T13:02:30.139Z,6.80
2022-12-24T13:05:15.284Z,6.72
2022-12-24T13:07:56.437Z,5.13
2022-12-24T13:10:53.120Z,5.68
2022-12-24T13:13:56.127Z,4.63
2022-12-24T13:16:53.914Z,5.40
2022-12-24T13:19:23.715Z,5.03
2022-12-24T13:21:56.867Z,6.18
2022-12-24T13:24:30.717Z,4.38
2022-12-24T13:27:14.761Z,7.10
2022-12-24T13:29:43.875Z,6.25
2022-12-24T13:32:20.101Z,6.88
2022-12-24T13:34:54.950Z,5.32
2022-12-24T13:37:23.143Z,6.47
2022-12-24T13:40:08.699Z,8.80
2022-12-24T13:43:12.937Z,5.30
2022-12-24T13:45:39.954Z,4.72
2022-12-24T13:48:07.099Z,7.03
2022-12-24T13:50:40.134Z,5.80
2022-12-24T13:53:25.860Z,6.32
2022-12-24T13:55:56.118Z,4.75
2022-12-24T14:01:12.137Z,6.55
2022-12-24T14:03:48.918Z,6.63
2022-12-24T14:06:28.102Z,5.78
2022-12-24T14:08:59.611Z,6.13
2022-12-24T14:11:31.326Z,5.70
2022-12-24T14:14:04.748Z,8.85
2022-12-24T14:16:43.500Z,9.32
2022-12-24T14:19:16.265Z,8.00
2022-12-24T14:21:51.513Z,7.60
2022-12-24T14:24:22.953Z,8.23
2022-12-24T14:27:08.234Z,7.65
2022-12-24T14:29:44.681Z,8.00
2022-12-24T14:32:16.534Z,11.70
2022-12-24T14:34:43.802Z,11.25
2022-12-24T14:37:13.297Z,8.18
2022-12-24T14:39:48.327Z,10.60
2022-12-24T14:42:45.145Z,9.35
2022-12-24T14:45:27.316Z,7.55
2022-12-24T14:48:00.311Z,8.48
2022-12-24T14:50:36.191Z,8.02
2022-12-24T14:53:23.909Z,9.32
2022-12-24T14:55:51.740Z,7.45
2022-12-24T14:58:21.511Z,11.40
2022-12-24T15:00:49.352Z,9.93
2022-12-24T15:03:19.008Z,8.02
2022-12-24T15:05:50.957Z,11.75
2022-12-24T15:08:22.962Z,10.48
2022-12-24T15:10:55.128Z,7.78
2022-12-24T15:13:36.693Z,10.65
2022-12-24T15:16:08.936Z,9.55
2022-12-24T15:18:43.098Z,10.43
2022-12-24T15:21:20.360Z,11.07
2022-12-24T15:23:50.788Z,11.05
2022-12-24T15:26:31.170Z,11.43
2022-12-24T15:29:03.352Z,11.00
2022-12-24T15:31:37.967Z,10.90
2022-12-24T15:34:05.169Z,12.15
2022-12-24T15:36:36.286Z,9.73
2022-12-24T15:39:16.798Z,10.52
2022-12-24T15:42:04.189Z,12.43
2022-12-24T15:44:37.669Z,10.38
2022-12-24T15:47:08.746Z,12.20
2022-12-24T15:49:36.511Z,12.25
2022-12-24T15:52:10.874Z,10.65
2022-12-24T15:54:42.991Z,10.40
2022-12-24T15:57:15.554Z,10.90
2022-12-24T16:02:40.432Z,11.85
2022-12-24T16:05:20.239Z,10.90
2022-12-24T16:08:07.882Z,12.68
2022-12-24T16:11:06.159Z,13.55
2022-12-24T16:13:43.473Z,13.65
2022-12-24T16:16:15.307Z,13.95
2022-12-24T16:18:53.478Z,14.07
2022-12-24T16:21:30.011Z,14.98
2022-12-24T16:26:41.951Z,15.52
2022-12-24T16:31:55.680Z,14.13
2022-12-24T16:34:33.368Z,11.85
2022-12-24T16:37:01.326Z,14.45
2022-12-24T16:39:34.361Z,11.27
2022-12-24T16:42:22.453Z,16.23
2022-12-24T16:44:52.852Z,17.08
2022-12-24T16:47:28.591Z,14.50
2022-12-24T16:49:57.161Z,15.68
2022-12-24T16:52:28.494Z,13.20
2022-12-24T16:54:56.792Z,12.65
2022-12-24T16:57:24.376Z,16.42
2022-12-24T16:59:52.647Z,15.68
2022-12-24T17:02:25.093Z,11.18
2022-12-24T17:04:52.692Z,13.82
2022-12-24T17:07:21.982Z,16.83
2022-12-24T17:09:49.567Z,16.42
2022-12-24T17:12:19.516Z,13.50
2022-12-24T17:14:46.493Z,16.15
2022-12-24T17:17:24.513Z,15.80
2022-12-24T17:19:51.792Z,19.48
2022-12-24T17:22:20.017Z,20.05
2022-12-24T17:24:47.192Z,11.55
2022-12-24T17:27:14.737Z,16.13
2022-12-24T17:29:41.913Z,14.25
2022-12-24T17:32:09.332Z,13.63
2022-12-24T17:34:36.584Z,18.27
2022-12-24T17:37:04.091Z,14.93
2022-12-24T17:39:40.013Z,16.55
2022-12-24T17:42:08.783Z,15.95
2022-12-24T17:44:36.758Z,16.80
2022-12-24T17:47:05.354Z,14.65
2022-12-24T17:49:32.972Z,20.15
2022-12-24T17:52:00.556Z,13.52
2022-12-24T17:54:27.912Z,16.13
2022-12-24T17:56:55.529Z,18.10
2022-12-24T17:59:22.898Z,18.58
2022-12-24T18:01:50.435Z,11.95
2022-12-24T18:04:26.876Z,12.50
2022-12-24T18:07:02.791Z,15.45
2022-12-24T18:09:43.296Z,16.20
2022-12-24T18:12:29.477Z,16.30
2022-12-24T18:15:35.851Z,14.35
2022-12-24T18:18:15.720Z,16.65
2022-12-24T18:21:45.548Z,15.23
2022-12-24T18:25:12.763Z,20.60
2022-12-24T18:31:29.700Z,15.32
2022-12-24T18:38:02.000Z,15.13
2022-12-24T18:40:49.003Z,16.50
2022-12-24T18:43:49.810Z,17.75
2022-12-24T18:46:37.543Z,20.98
2022-12-24T18:53:14.763Z,18.48
2022-12-24T18:55:42.402Z,23.73
2022-12-24T18:58:09.635Z,20.48
2022-12-24T19:00:56.457Z,20.25
2022-12-24T19:03:33.319Z,19.95
2022-12-24T19:06:14.387Z,18.25
2022-12-24T19:09:06.393Z,18.73
2022-12-24T19:11:35.332Z,19.75
2022-12-24T19:14:03.688Z,16.58
2022-12-24T19:16:33.839Z,18.98
2022-12-24T19:21:29.306Z,14.50
2022-12-24T19:27:18.291Z,19.92
2022-12-24T19:29:48.473Z,22.27
2022-12-24T19:32:16.491Z,16.65
2022-12-24T19:34:44.204Z,18.90
2022-12-24T19:37:11.771Z,21.70
2022-12-24T19:39:42.149Z,19.90
2022-12-24T19:42:10.591Z,19.67
2022-12-24T19:44:42.827Z,22.05
2022-12-24T19:47:31.816Z,17.13
2022-12-24T19:49:59.087Z,21.23
2022-12-24T19:52:29.088Z,19.98
2022-12-24T19:57:23.860Z,20.85
2022-12-24T19:59:51.004Z,19.85
2022-12-24T20:02:18.166Z,19.50
2022-12-24T20:04:45.310Z,19.95
2022-12-24T20:07:38.956Z,16.33
2022-12-24T20:10:10.504Z,21.05
2022-12-24T20:12:38.066Z,17.35
2022-12-24T20:15:08.519Z,18.75
2022-12-24T20:17:35.944Z,22.95
2022-12-24T20:20:02.963Z,15.68
2022-12-24T20:22:30.558Z,21.27
2022-12-24T20:24:57.587Z,17.92
2022-12-24T20:27:25.548Z,21.30
2022-12-24T20:29:52.669Z,22.50
2022-12-24T20:32:19.927Z,21.27
2022-12-24T20:34:47.043Z,17.48
2022-12-24T20:37:13.994Z,15.05
2022-12-24T20:39:42.769Z,19.73
2022-12-24T20:42:11.695Z,19.00
2022-12-24T20:44:38.740Z,15.23
2022-12-24T20:47:08.313Z,17.00
2022-12-24T20:49:35.311Z,21.35
2022-12-24T20:52:02.722Z,22.85
2022-12-24T20:54:29.738Z,20.80
2022-12-24T20:56:57.907Z,22.65
2022-12-24T20:59:26.124Z,23.45
2022-12-24T21:01:53.963Z,14.77
2022-12-24T21:04:21.273Z,13.68
2022-12-24T21:06:48.240Z,18.52
2022-12-24T21:09:15.777Z,15.23
2022-12-24T21:11:48.996Z,15.70
2022-12-24T21:14:22.595Z,13.50
2022-12-24T21:16:50.578Z,12.57
2022-12-24T21:19:20.803Z,14.35
2022-12-24T21:24:15.620Z,17.05
2022-12-24T21:26:43.158Z,13.52
2022-12-24T21:29:11.404Z,14.88
2022-12-24T21:31:38.569Z,14.48
2022-12-24T21:34:06.123Z,18.13
2022-12-24T21:36:33.213Z,15.73
2022-12-24T21:39:00.207Z,12.18
2022-12-24T21:41:28.000Z,15.65
2022-12-24T21:43:55.212Z,11.82
2022-12-24T21:46:25.172Z,12.50
2022-12-24T21:49:12.176Z,14.30
2022-12-24T21:51:40.192Z,20.40
2022-12-24T21:54:26.169Z,14.02
2022-12-24T21:57:14.275Z,13.60
2022-12-24T22:02:12.452Z,11.10
2022-12-24T22:04:39.668Z,15.80
2022-12-24T22:07:26.233Z,11.15
2022-12-24T22:10:14.319Z,19.27
2022-12-24T22:12:41.813Z,13.00
2022-12-24T22:15:09.365Z,8.73
2022-12-24T22:17:36.726Z,13.40
2022-12-24T22:20:04.599Z,14.55
2022-12-24T22:22:32.304Z,15.00
2022-12-24T22:24:59.461Z,12.68
2022-12-24T22:27:26.440Z,10.82
2022-12-24T22:29:53.708Z,10.20
2022-12-24T22:32:20.592Z,10.07
2022-12-24T22:34:49.461Z,15.65
2022-12-24T22:37:17.098Z,20.42
2022-12-24T22:39:44.177Z,15.38
2022-12-24T22:42:11.044Z,19.33
2022-12-24T22:44:38.015Z,12.18
2022-12-24T22:47:05.090Z,12.48
2022-12-24T22:49:32.232Z,18.58
2022-12-24T22:51:59.940Z,29.80
2022-12-24T22:54:34.494Z,10.77
2022-12-24T22:57:01.680Z,18.25
2022-12-24T22:59:28.590Z,12.15
2022-12-24T23:01:58.828Z,16.85
2022-12-24T23:04:26.241Z,18.48
2022-12-24T23:06:53.148Z,17.00
2022-12-24T23:09:20.066Z,15.77
2022-12-24T23:11:47.185Z,17.00
2022-12-24T23:14:39.902Z,16.60
2022-12-24T23:17:08.307Z,19.90
2022-12-24T23:19:36.116Z,10.48
2022-12-24T23:22:04.964Z,16.77
2022-12-24T23:24:32.680Z,16.98
2022-12-24T23:27:03.656Z,19.20
2022-12-24T23:29:34.293Z,17.10
2022-12-24T23:32:01.568Z,13.52
2022-12-24T23:34:28.506Z,10.13
2022-12-24T23:36:55.769Z,19.17
2022-12-24T23:39:22.975Z,18.63
2022-12-24T23:41:50.147Z,20.25
2022-12-24T23:44:17.569Z,15.73
2022-12-24T23:46:45.045Z,14.15
2022-12-24T23:49:14.616Z,21.85
2022-12-24T23:51:43.846Z,19.73
2022-12-24T23:54:11.032Z,17.13
2022-12-24T23:56:38.493Z,12.60
2022-12-24T23:59:05.543Z,23.40
